Aqaba, Jordan

10:58 AM EEST on October 23, 2014 (GMT +0300)
Eilat | Change Station
CLOSE
Current Station
Airport
Location: Eilat,
Elevation: 39 ft
Nearby Weather Stations

Elev 39 ft 29.56 °N, 34.96 °E | Updated 8 minutes ago

Clear
Clear
82 °F
Feels Like 82 °F
N
8
Wind Variable Wind from ENE

Today
High -- | Low -- °F
--% Chance of Precip.
Yesterday
High -- | Low -- °F
Precip. -- in
6:46 AM 6:01 PM
Waning Crescent, 0% visible
Pressure 30.04 in
Visibility -9999.0 miles
Clouds
Dew Point 52 °F
Humidity 35%
Rainfall 0.00 in
Snow Depth Not available.
UV Not available.
Pollen Not available.
Air Quality Not available.
Flu Activity Not available.
METAR LLET 230750Z 06007KT CAVOK 28/11 Q1017

More Conditions Fewer Conditions

Pressure 30.04 in
Visibility -9999.0 miles
Clouds
Dew Point 52 °F
Humidity 35%
Rainfall 0.00 in
Snow Depth Not available.
UV Not available.
Pollen Not available.
Air Quality Not available.
Flu Activity Not available.
METAR LLET 230750Z 06007KT CAVOK 28/11 Q1017

More Conditions Fewer Conditions

10-Day Weather Forecast

Almanac

Astronomy

Oct. 23, 2014 Rise Set
Actual Time 6:46 AM EEST 6:01 PM EEST
Civil Twilight 6:22 AM EEST 6:25 PM EEST
Nautical Twilight 5:54 AM EEST 6:53 PM EEST
Astronomical Twilight 5:26 AM EEST 7:21 PM EEST
Moon 6:08 AM EEST 5:49 PM EEST
Length of Visible Light 12h 03m
Length of Day
11h 14m
Tomorrow will be 1m 39s shorter.
Waning Crescent, 0% of the Moon is Illuminated
Today
Waning Crescent
Oct 23
New
Oct 30
First Quarter
Nov 6
Full
Nov 14
Last Quarter

Yesterday's Extremes

Country Highs Country Lows

Community

WunderPhotos

Upload Photos

1,764,194 photos uploaded!

Nearby

Snow Depth

Not available.

Earthquake Activity

City Distance Mag. Time & Date
No recent earthquake activity has been reported nearby.
Minimum magnitude displayed is 2.5.

Coastal Water Temperatures

Place Temperature
No Stations Reporting

Nearby Weather Stations